sensor_id;sensor_type;location;lat;lon;timestamp;temperature;humidity
76263;DHT22;65080;50.908;6.916;2022-11-15T00:01:15;11.90;73.50
76263;DHT22;65080;50.908;6.916;2022-11-15T00:03:44;11.90;73.50
76263;DHT22;65080;50.908;6.916;2022-11-15T00:06:13;11.90;73.60
76263;DHT22;65080;50.908;6.916;2022-11-15T00:08:41;11.90;73.70
76263;DHT22;65080;50.908;6.916;2022-11-15T00:11:11;12.00;73.90
76263;DHT22;65080;50.908;6.916;2022-11-15T00:13:39;12.00;74.00
76263;DHT22;65080;50.908;6.916;2022-11-15T00:16:09;12.00;73.90
76263;DHT22;65080;50.908;6.916;2022-11-15T00:18:38;12.00;74.10
76263;DHT22;65080;50.908;6.916;2022-11-15T00:21:11;12.00;74.10
76263;DHT22;65080;50.908;6.916;2022-11-15T00:23:40;12.00;74.20
76263;DHT22;65080;50.908;6.916;2022-11-15T00:26:11;12.00;74.20
76263;DHT22;65080;50.908;6.916;2022-11-15T00:28:40;12.00;74.90
76263;DHT22;65080;50.908;6.916;2022-11-15T00:31:12;12.10;74.40
76263;DHT22;65080;50.908;6.916;2022-11-15T00:33:43;12.10;74.50
76263;DHT22;65080;50.908;6.916;2022-11-15T00:36:11;12.10;74.50
76263;DHT22;65080;50.908;6.916;2022-11-15T00:38:40;12.10;74.60
76263;DHT22;65080;50.908;6.916;2022-11-15T00:41:09;12.20;74.70
76263;DHT22;65080;50.908;6.916;2022-11-15T00:43:37;12.20;75.30
76263;DHT22;65080;50.908;6.916;2022-11-15T00:46:07;12.20;74.60
76263;DHT22;65080;50.908;6.916;2022-11-15T00:48:37;12.20;74.60
76263;DHT22;65080;50.908;6.916;2022-11-15T00:51:06;12.20;74.60
76263;DHT22;65080;50.908;6.916;2022-11-15T00:53:34;12.30;74.80
76263;DHT22;65080;50.908;6.916;2022-11-15T00:56:02;12.30;74.80
76263;DHT22;65080;50.908;6.916;2022-11-15T00:58:30;12.30;74.90
76263;DHT22;65080;50.908;6.916;2022-11-15T01:01:06;12.30;74.90
76263;DHT22;65080;50.908;6.916;2022-11-15T01:03:35;12.30;75.00
76263;DHT22;65080;50.908;6.916;2022-11-15T01:06:05;12.30;74.90
76263;DHT22;65080;50.908;6.916;2022-11-15T01:08:34;12.30;75.00
76263;DHT22;65080;50.908;6.916;2022-11-15T01:11:03;12.40;75.00
76263;DHT22;65080;50.908;6.916;2022-11-15T01:13:32;12.40;75.10
76263;DHT22;65080;50.908;6.916;2022-11-15T01:16:06;12.40;75.10
76263;DHT22;65080;50.908;6.916;2022-11-15T01:18:34;12.40;75.10
76263;DHT22;65080;50.908;6.916;2022-11-15T01:21:07;12.40;75.10
76263;DHT22;65080;50.908;6.916;2022-11-15T01:23:35;12.40;75.20
76263;DHT22;65080;50.908;6.916;2022-11-15T01:26:05;12.40;75.20
76263;DHT22;65080;50.908;6.916;2022-11-15T01:28:35;12.40;75.20
76263;DHT22;65080;50.908;6.916;2022-11-15T01:31:07;12.40;75.30
76263;DHT22;65080;50.908;6.916;2022-11-15T01:33:37;12.50;75.50
76263;DHT22;65080;50.908;6.916;2022-11-15T01:36:08;12.50;75.60
76263;DHT22;65080;50.908;6.916;2022-11-15T01:38:38;12.50;75.60
76263;DHT22;65080;50.908;6.916;2022-11-15T01:41:06;12.50;75.60
76263;DHT22;65080;50.908;6.916;2022-11-15T01:43:36;12.60;75.70
76263;DHT22;65080;50.908;6.916;2022-11-15T01:46:08;12.60;75.70
76263;DHT22;65080;50.908;6.916;2022-11-15T01:48:41;12.60;75.70
76263;DHT22;65080;50.908;6.916;2022-11-15T01:51:12;12.60;75.80
76263;DHT22;65080;50.908;6.916;2022-11-15T01:53:46;12.60;75.80
76263;DHT22;65080;50.908;6.916;2022-11-15T01:56:19;12.60;75.90
76263;DHT22;65080;50.908;6.916;2022-11-15T01:58:49;12.70;76.00
76263;DHT22;65080;50.908;6.916;2022-11-15T02:01:18;12.70;76.00
76263;DHT22;65080;50.908;6.916;2022-11-15T02:03:50;12.70;75.90
76263;DHT22;65080;50.908;6.916;2022-11-15T02:06:21;12.70;76.00
76263;DHT22;65080;50.908;6.916;2022-11-15T02:08:50;12.80;76.10
76263;DHT22;65080;50.908;6.916;2022-11-15T02:11:18;12.80;76.00
76263;DHT22;65080;50.908;6.916;2022-11-15T02:13:46;12.80;76.10
76263;DHT22;65080;50.908;6.916;2022-11-15T02:16:21;12.80;76.20
76263;DHT22;65080;50.908;6.916;2022-11-15T02:19:02;12.80;76.40
76263;DHT22;65080;50.908;6.916;2022-11-15T02:21:38;12.80;76.30
76263;DHT22;65080;50.908;6.916;2022-11-15T02:24:36;12.90;76.40
76263;DHT22;65080;50.908;6.916;2022-11-15T02:27:37;12.90;76.50
76263;DHT22;65080;50.908;6.916;2022-11-15T02:30:25;12.90;76.50
76263;DHT22;65080;50.908;6.916;2022-11-15T02:33:00;12.90;76.50
76263;DHT22;65080;50.908;6.916;2022-11-15T02:35:39;12.90;76.50
76263;DHT22;65080;50.908;6.916;2022-11-15T02:38:19;13.00;76.60
76263;DHT22;65080;50.908;6.916;2022-11-15T02:40:55;13.00;76.70
76263;DHT22;65080;50.908;6.916;2022-11-15T02:43:29;13.00;76.80
76263;DHT22;65080;50.908;6.916;2022-11-15T02:46:32;13.00;76.90
76263;DHT22;65080;50.908;6.916;2022-11-15T02:49:19;13.00;76.80
76263;DHT22;65080;50.908;6.916;2022-11-15T02:51:48;13.00;76.80
76263;DHT22;65080;50.908;6.916;2022-11-15T02:54:20;13.00;76.90
76263;DHT22;65080;50.908;6.916;2022-11-15T02:56:50;13.10;77.00
76263;DHT22;65080;50.908;6.916;2022-11-15T02:59:31;13.10;77.00
76263;DHT22;65080;50.908;6.916;2022-11-15T03:02:14;13.10;77.00
76263;DHT22;65080;50.908;6.916;2022-11-15T03:04:53;13.20;77.20
76263;DHT22;65080;50.908;6.916;2022-11-15T03:07:28;13.10;77.20
76263;DHT22;65080;50.908;6.916;2022-11-15T03:10:03;13.20;77.30
76263;DHT22;65080;50.908;6.916;2022-11-15T03:12:39;13.20;77.30
76263;DHT22;65080;50.908;6.916;2022-11-15T03:15:12;13.20;77.30
76263;DHT22;65080;50.908;6.916;2022-11-15T03:17:48;13.30;77.30
76263;DHT22;65080;50.908;6.916;2022-11-15T03:20:19;13.30;77.20
76263;DHT22;65080;50.908;6.916;2022-11-15T03:22:48;13.30;77.10
76263;DHT22;65080;50.908;6.916;2022-11-15T03:25:19;13.40;77.20
76263;DHT22;65080;50.908;6.916;2022-11-15T03:27:51;13.40;77.20
76263;DHT22;65080;50.908;6.916;2022-11-15T03:30:20;13.40;77.00
76263;DHT22;65080;50.908;6.916;2022-11-15T03:32:52;13.50;77.00
76263;DHT22;65080;50.908;6.916;2022-11-15T03:35:23;13.50;76.90
76263;DHT22;65080;50.908;6.916;2022-11-15T03:37:54;13.50;76.90
76263;DHT22;65080;50.908;6.916;2022-11-15T03:40:27;13.50;76.80
76263;DHT22;65080;50.908;6.916;2022-11-15T03:43:02;13.50;76.80
76263;DHT22;65080;50.908;6.916;2022-11-15T03:45:36;13.50;76.80
76263;DHT22;65080;50.908;6.916;2022-11-15T03:48:12;13.50;76.70
76263;DHT22;65080;50.908;6.916;2022-11-15T03:50:41;13.50;76.60
76263;DHT22;65080;50.908;6.916;2022-11-15T03:53:10;13.50;76.60
76263;DHT22;65080;50.908;6.916;2022-11-15T03:55:39;13.50;76.50
76263;DHT22;65080;50.908;6.916;2022-11-15T03:58:08;13.50;76.40
76263;DHT22;65080;50.908;6.916;2022-11-15T04:00:36;13.50;76.40
76263;DHT22;65080;50.908;6.916;2022-11-15T04:03:04;13.50;76.40
76263;DHT22;65080;50.908;6.916;2022-11-15T04:05:35;13.50;76.30
76263;DHT22;65080;50.908;6.916;2022-11-15T04:08:03;13.50;76.30
76263;DHT22;65080;50.908;6.916;2022-11-15T04:10:32;13.50;76.30
76263;DHT22;65080;50.908;6.916;2022-11-15T04:13:02;13.50;76.30
76263;DHT22;65080;50.908;6.916;2022-11-15T04:15:30;13.50;76.30
76263;DHT22;65080;50.908;6.916;2022-11-15T04:17:58;13.50;76.30
76263;DHT22;65080;50.908;6.916;2022-11-15T04:20:28;13.50;76.30
76263;DHT22;65080;50.908;6.916;2022-11-15T04:23:17;13.50;76.30
76263;DHT22;65080;50.908;6.916;2022-11-15T04:26:05;13.50;76.30
76263;DHT22;65080;50.908;6.916;2022-11-15T04:28:34;13.50;76.20
76263;DHT22;65080;50.908;6.916;2022-11-15T04:31:02;13.50;76.30
76263;DHT22;65080;50.908;6.916;2022-11-15T04:33:33;13.50;76.30
76263;DHT22;65080;50.908;6.916;2022-11-15T04:36:02;13.50;76.30
76263;DHT22;65080;50.908;6.916;2022-11-15T04:38:49;13.50;76.30
76263;DHT22;65080;50.908;6.916;2022-11-15T04:41:17;13.50;76.30
76263;DHT22;65080;50.908;6.916;2022-11-15T04:43:45;13.50;76.30
76263;DHT22;65080;50.908;6.916;2022-11-15T04:46:13;13.50;76.40
76263;DHT22;65080;50.908;6.916;2022-11-15T04:48:41;13.50;76.40
76263;DHT22;65080;50.908;6.916;2022-11-15T04:51:09;13.50;76.40
76263;DHT22;65080;50.908;6.916;2022-11-15T04:53:38;13.50;76.40
76263;DHT22;65080;50.908;6.916;2022-11-15T04:56:08;13.50;76.40
76263;DHT22;65080;50.908;6.916;2022-11-15T04:58:36;13.50;76.40
76263;DHT22;65080;50.908;6.916;2022-11-15T05:01:07;13.50;76.50
76263;DHT22;65080;50.908;6.916;2022-11-15T05:03:35;13.50;76.50
76263;DHT22;65080;50.908;6.916;2022-11-15T05:06:21;13.60;76.60
76263;DHT22;65080;50.908;6.916;2022-11-15T05:08:50;13.50;76.40
76263;DHT22;65080;50.908;6.916;2022-11-15T05:11:19;13.60;76.50
76263;DHT22;65080;50.908;6.916;2022-11-15T05:13:47;13.60;76.50
76263;DHT22;65080;50.908;6.916;2022-11-15T05:16:16;13.50;76.50
76263;DHT22;65080;50.908;6.916;2022-11-15T05:18:44;13.60;76.60
76263;DHT22;65080;50.908;6.916;2022-11-15T05:21:13;13.50;76.60
76263;DHT22;65080;50.908;6.916;2022-11-15T05:23:42;13.50;76.60
76263;DHT22;65080;50.908;6.916;2022-11-15T05:26:10;13.50;76.60
76263;DHT22;65080;50.908;6.916;2022-11-15T05:28:40;13.40;76.50
76263;DHT22;65080;50.908;6.916;2022-11-15T05:31:11;13.50;76.60
76263;DHT22;65080;50.908;6.916;2022-11-15T05:33:40;13.50;76.50
76263;DHT22;65080;50.908;6.916;2022-11-15T05:36:14;13.40;76.40
76263;DHT22;65080;50.908;6.916;2022-11-15T05:38:44;13.40;76.50
76263;DHT22;65080;50.908;6.916;2022-11-15T05:41:13;13.40;76.40
76263;DHT22;65080;50.908;6.916;2022-11-15T05:43:44;13.30;76.40
76263;DHT22;65080;50.908;6.916;2022-11-15T05:46:13;13.30;76.50
76263;DHT22;65080;50.908;6.916;2022-11-15T05:48:45;13.30;76.60
76263;DHT22;65080;50.908;6.916;2022-11-15T05:51:16;13.20;76.60
76263;DHT22;65080;50.908;6.916;2022-11-15T05:53:45;13.20;76.70
76263;DHT22;65080;50.908;6.916;2022-11-15T05:56:14;13.20;76.80
76263;DHT22;65080;50.908;6.916;2022-11-15T05:58:44;13.10;76.80
76263;DHT22;65080;50.908;6.916;2022-11-15T06:01:12;13.10;76.90
76263;DHT22;65080;50.908;6.916;2022-11-15T06:03:40;13.10;76.90
76263;DHT22;65080;50.908;6.916;2022-11-15T06:06:08;13.10;76.90
76263;DHT22;65080;50.908;6.916;2022-11-15T06:08:43;13.00;76.80
76263;DHT22;65080;50.908;6.916;2022-11-15T06:11:11;13.00;76.80
76263;DHT22;65080;50.908;6.916;2022-11-15T06:13:39;13.00;76.90
76263;DHT22;65080;50.908;6.916;2022-11-15T06:16:09;12.90;76.90
76263;DHT22;65080;50.908;6.916;2022-11-15T06:18:37;12.90;77.10
76263;DHT22;65080;50.908;6.916;2022-11-15T06:21:05;12.90;77.50
76263;DHT22;65080;50.908;6.916;2022-11-15T06:23:35;12.80;77.10
76263;DHT22;65080;50.908;6.916;2022-11-15T06:26:03;12.80;77.00
76263;DHT22;65080;50.908;6.916;2022-11-15T06:28:32;12.80;77.00
76263;DHT22;65080;50.908;6.916;2022-11-15T06:31:05;12.80;76.90
76263;DHT22;65080;50.908;6.916;2022-11-15T06:33:35;12.80;76.80
76263;DHT22;65080;50.908;6.916;2022-11-15T06:36:06;12.80;76.70
76263;DHT22;65080;50.908;6.916;2022-11-15T06:38:43;12.80;76.70
76263;DHT22;65080;50.908;6.916;2022-11-15T06:41:13;12.80;76.60
76263;DHT22;65080;50.908;6.916;2022-11-15T06:43:41;12.80;76.50
76263;DHT22;65080;50.908;6.916;2022-11-15T06:46:09;12.80;76.50
76263;DHT22;65080;50.908;6.916;2022-11-15T06:48:39;12.90;76.60
76263;DHT22;65080;50.908;6.916;2022-11-15T06:51:07;13.00;76.40
76263;DHT22;65080;50.908;6.916;2022-11-15T06:53:35;12.90;75.80
76263;DHT22;65080;50.908;6.916;2022-11-15T06:56:05;12.90;75.70
76263;DHT22;65080;50.908;6.916;2022-11-15T06:58:34;12.90;75.50
76263;DHT22;65080;50.908;6.916;2022-11-15T07:01:04;13.00;75.60
76263;DHT22;65080;50.908;6.916;2022-11-15T07:03:34;13.00;75.30
76263;DHT22;65080;50.908;6.916;2022-11-15T07:06:04;13.00;75.00
76263;DHT22;65080;50.908;6.916;2022-11-15T07:08:35;13.00;74.90
76263;DHT22;65080;50.908;6.916;2022-11-15T07:11:05;13.00;74.70
76263;DHT22;65080;50.908;6.916;2022-11-15T07:13:34;13.00;74.50
76263;DHT22;65080;50.908;6.916;2022-11-15T07:16:04;13.00;74.30
76263;DHT22;65080;50.908;6.916;2022-11-15T07:18:33;13.00;74.20
76263;DHT22;65080;50.908;6.916;2022-11-15T07:21:05;13.00;74.10
76263;DHT22;65080;50.908;6.916;2022-11-15T07:23:35;12.90;73.90
76263;DHT22;65080;50.908;6.916;2022-11-15T07:26:04;12.90;73.70
76263;DHT22;65080;50.908;6.916;2022-11-15T07:28:32;12.90;73.60
76263;DHT22;65080;50.908;6.916;2022-11-15T07:31:02;12.90;73.40
76263;DHT22;65080;50.908;6.916;2022-11-15T07:33:30;12.90;73.40
76263;DHT22;65080;50.908;6.916;2022-11-15T07:35:59;12.90;73.30
76263;DHT22;65080;50.908;6.916;2022-11-15T07:38:31;12.90;73.20
76263;DHT22;65080;50.908;6.916;2022-11-15T07:41:06;12.90;73.10
76263;DHT22;65080;50.908;6.916;2022-11-15T07:43:34;12.80;72.90
76263;DHT22;65080;50.908;6.916;2022-11-15T07:46:05;12.80;72.80
76263;DHT22;65080;50.908;6.916;2022-11-15T07:48:36;12.80;72.70
76263;DHT22;65080;50.908;6.916;2022-11-15T07:51:12;12.90;72.70
76263;DHT22;65080;50.908;6.916;2022-11-15T07:53:43;12.90;72.60
76263;DHT22;65080;50.908;6.916;2022-11-15T07:56:12;12.90;72.40
76263;DHT22;65080;50.908;6.916;2022-11-15T07:58:40;12.90;72.30
76263;DHT22;65080;50.908;6.916;2022-11-15T08:01:09;12.90;72.10
76263;DHT22;65080;50.908;6.916;2022-11-15T08:03:38;12.90;72.00
76263;DHT22;65080;50.908;6.916;2022-11-15T08:06:06;12.90;71.90
76263;DHT22;65080;50.908;6.916;2022-11-15T08:08:34;12.90;71.80
76263;DHT22;65080;50.908;6.916;2022-11-15T08:11:04;13.00;71.80
76263;DHT22;65080;50.908;6.916;2022-11-15T08:13:32;13.00;71.70
76263;DHT22;65080;50.908;6.916;2022-11-15T08:16:02;13.00;71.70
76263;DHT22;65080;50.908;6.916;2022-11-15T08:18:32;13.00;71.60
76263;DHT22;65080;50.908;6.916;2022-11-15T08:21:00;13.00;71.50
76263;DHT22;65080;50.908;6.916;2022-11-15T08:23:29;13.00;71.40
76263;DHT22;65080;50.908;6.916;2022-11-15T08:26:01;13.10;71.40
76263;DHT22;65080;50.908;6.916;2022-11-15T08:28:32;13.10;71.30
76263;DHT22;65080;50.908;6.916;2022-11-15T08:31:00;13.10;71.20
76263;DHT22;65080;50.908;6.916;2022-11-15T08:33:28;13.10;70.90
76263;DHT22;65080;50.908;6.916;2022-11-15T08:35:58;13.20;70.90
76263;DHT22;65080;50.908;6.916;2022-11-15T08:38:26;13.20;70.70
76263;DHT22;65080;50.908;6.916;2022-11-15T08:41:00;13.20;70.50
76263;DHT22;65080;50.908;6.916;2022-11-15T08:43:29;13.20;70.20
76263;DHT22;65080;50.908;6.916;2022-11-15T08:45:59;13.30;70.20
76263;DHT22;65080;50.908;6.916;2022-11-15T08:48:27;13.40;70.00
76263;DHT22;65080;50.908;6.916;2022-11-15T08:50:56;13.40;69.70
76263;DHT22;65080;50.908;6.916;2022-11-15T08:53:25;13.40;69.50
76263;DHT22;65080;50.908;6.916;2022-11-15T08:55:53;13.40;69.30
76263;DHT22;65080;50.908;6.916;2022-11-15T08:58:21;13.50;69.10
76263;DHT22;65080;50.908;6.916;2022-11-15T09:00:49;13.50;68.90
76263;DHT22;65080;50.908;6.916;2022-11-15T09:03:18;13.50;68.70
76263;DHT22;65080;50.908;6.916;2022-11-15T09:05:47;13.50;68.60
76263;DHT22;65080;50.908;6.916;2022-11-15T09:08:15;13.50;68.20
76263;DHT22;65080;50.908;6.916;2022-11-15T09:11:04;13.50;67.90
76263;DHT22;65080;50.908;6.916;2022-11-15T09:13:33;13.50;67.80
76263;DHT22;65080;50.908;6.916;2022-11-15T09:16:01;13.50;67.70
76263;DHT22;65080;50.908;6.916;2022-11-15T09:18:31;13.60;67.60
76263;DHT22;65080;50.908;6.916;2022-11-15T09:21:00;13.60;67.40
76263;DHT22;65080;50.908;6.916;2022-11-15T09:23:29;13.60;67.20
76263;DHT22;65080;50.908;6.916;2022-11-15T09:25:59;13.60;66.80
76263;DHT22;65080;50.908;6.916;2022-11-15T09:28:29;13.70;66.70
76263;DHT22;65080;50.908;6.916;2022-11-15T09:30:59;13.70;66.50
76263;DHT22;65080;50.908;6.916;2022-11-15T09:33:27;13.80;66.50
76263;DHT22;65080;50.908;6.916;2022-11-15T09:36:01;13.80;66.40
76263;DHT22;65080;50.908;6.916;2022-11-15T09:38:30;13.80;66.10
76263;DHT22;65080;50.908;6.916;2022-11-15T09:44:23;13.90;65.40
76263;DHT22;65080;50.908;6.916;2022-11-15T09:47:01;13.90;65.30
76263;DHT22;65080;50.908;6.916;2022-11-15T09:49:33;13.90;65.20
76263;DHT22;65080;50.908;6.916;2022-11-15T09:52:03;14.00;65.20
76263;DHT22;65080;50.908;6.916;2022-11-15T09:54:33;14.00;64.90
76263;DHT22;65080;50.908;6.916;2022-11-15T09:57:28;14.00;64.60
76263;DHT22;65080;50.908;6.916;2022-11-15T10:00:08;14.10;64.40
76263;DHT22;65080;50.908;6.916;2022-11-15T10:03:10;14.10;64.00
76263;DHT22;65080;50.908;6.916;2022-11-15T10:05:40;14.10;63.70
76263;DHT22;65080;50.908;6.916;2022-11-15T10:08:25;14.10;63.50
76263;DHT22;65080;50.908;6.916;2022-11-15T10:10:58;14.20;63.00
76263;DHT22;65080;50.908;6.916;2022-11-15T10:13:48;14.20;62.80
76263;DHT22;65080;50.908;6.916;2022-11-15T10:16:39;14.20;62.50
76263;DHT22;65080;50.908;6.916;2022-11-15T10:19:15;14.20;61.70
76263;DHT22;65080;50.908;6.916;2022-11-15T10:21:58;14.30;61.80
76263;DHT22;65080;50.908;6.916;2022-11-15T10:24:34;14.30;61.30
76263;DHT22;65080;50.908;6.916;2022-11-15T10:27:09;14.30;61.00
76263;DHT22;65080;50.908;6.916;2022-11-15T10:29:43;14.40;60.80
76263;DHT22;65080;50.908;6.916;2022-11-15T10:32:11;14.50;60.60
76263;DHT22;65080;50.908;6.916;2022-11-15T10:34:40;14.60;60.30
76263;DHT22;65080;50.908;6.916;2022-11-15T10:37:08;14.60;60.00
76263;DHT22;65080;50.908;6.916;2022-11-15T10:39:37;14.60;59.50
76263;DHT22;65080;50.908;6.916;2022-11-15T10:42:16;14.70;58.90
76263;DHT22;65080;50.908;6.916;2022-11-15T10:44:45;14.70;58.10
76263;DHT22;65080;50.908;6.916;2022-11-15T10:47:25;14.70;58.00
76263;DHT22;65080;50.908;6.916;2022-11-15T10:50:03;14.80;57.10
76263;DHT22;65080;50.908;6.916;2022-11-15T10:52:34;14.80;56.80
76263;DHT22;65080;50.908;6.916;2022-11-15T10:55:20;14.80;56.40
76263;DHT22;65080;50.908;6.916;2022-11-15T10:57:51;14.80;55.80
76263;DHT22;65080;50.908;6.916;2022-11-15T11:00:32;14.90;55.50
76263;DHT22;65080;50.908;6.916;2022-11-15T11:03:02;14.90;55.10
76263;DHT22;65080;50.908;6.916;2022-11-15T11:05:32;14.90;55.20
76263;DHT22;65080;50.908;6.916;2022-11-15T11:08:21;14.90;54.90
76263;DHT22;65080;50.908;6.916;2022-11-15T11:10:54;15.00;54.70
76263;DHT22;65080;50.908;6.916;2022-11-15T11:13:30;15.00;54.70
76263;DHT22;65080;50.908;6.916;2022-11-15T11:16:16;15.00;54.40
76263;DHT22;65080;50.908;6.916;2022-11-15T11:18:52;15.10;54.20
76263;DHT22;65080;50.908;6.916;2022-11-15T11:21:32;15.20;54.10
76263;DHT22;65080;50.908;6.916;2022-11-15T11:24:11;15.20;54.00
76263;DHT22;65080;50.908;6.916;2022-11-15T11:26:54;15.20;53.90
76263;DHT22;65080;50.908;6.916;2022-11-15T11:29:36;15.30;53.90
76263;DHT22;65080;50.908;6.916;2022-11-15T11:32:16;15.30;54.00
76263;DHT22;65080;50.908;6.916;2022-11-15T11:34:56;15.30;54.10
76263;DHT22;65080;50.908;6.916;2022-11-15T11:37:31;15.40;54.20
76263;DHT22;65080;50.908;6.916;2022-11-15T11:40:13;15.40;54.10
76263;DHT22;65080;50.908;6.916;2022-11-15T11:42:50;15.40;54.00
76263;DHT22;65080;50.908;6.916;2022-11-15T11:48:39;15.50;54.00
76263;DHT22;65080;50.908;6.916;2022-11-15T11:51:14;15.50;53.90
76263;DHT22;65080;50.908;6.916;2022-11-15T11:53:49;15.60;54.20
76263;DHT22;65080;50.908;6.916;2022-11-15T11:56:24;15.60;54.20
76263;DHT22;65080;50.908;6.916;2022-11-15T11:58:57;15.60;54.10
76263;DHT22;65080;50.908;6.916;2022-11-15T12:01:32;15.60;54.00
76263;DHT22;65080;50.908;6.916;2022-11-15T12:04:04;15.70;54.00
76263;DHT22;65080;50.908;6.916;2022-11-15T12:06:36;15.70;53.90
76263;DHT22;65080;50.908;6.916;2022-11-15T12:09:14;15.70;53.90
76263;DHT22;65080;50.908;6.916;2022-11-15T12:11:50;15.70;53.90
76263;DHT22;65080;50.908;6.916;2022-11-15T12:14:27;15.70;53.90
76263;DHT22;65080;50.908;6.916;2022-11-15T12:16:57;15.70;53.80
76263;DHT22;65080;50.908;6.916;2022-11-15T12:19:26;15.60;53.80
76263;DHT22;65080;50.908;6.916;2022-11-15T12:22:01;15.60;53.70
76263;DHT22;65080;50.908;6.916;2022-11-15T12:24:37;15.60;53.60
76263;DHT22;65080;50.908;6.916;2022-11-15T12:27:15;15.60;53.70
76263;DHT22;65080;50.908;6.916;2022-11-15T12:29:55;15.70;53.90
76263;DHT22;65080;50.908;6.916;2022-11-15T12:32:27;15.80;54.10
76263;DHT22;65080;50.908;6.916;2022-11-15T12:34:57;15.80;54.10
76263;DHT22;65080;50.908;6.916;2022-11-15T12:37:50;15.80;54.10
76263;DHT22;65080;50.908;6.916;2022-11-15T12:40:23;15.90;54.10
76263;DHT22;65080;50.908;6.916;2022-11-15T12:46:20;15.90;54.10
76263;DHT22;65080;50.908;6.916;2022-11-15T12:48:54;15.90;54.40
76263;DHT22;65080;50.908;6.916;2022-11-15T12:55:01;16.00;54.50
76263;DHT22;65080;50.908;6.916;2022-11-15T12:57:38;16.10;54.50
76263;DHT22;65080;50.908;6.916;2022-11-15T13:03:31;16.10;54.50
76263;DHT22;65080;50.908;6.916;2022-11-15T13:06:08;16.10;54.50
76263;DHT22;65080;50.908;6.916;2022-11-15T13:08:56;16.10;54.60
76263;DHT22;65080;50.908;6.916;2022-11-15T13:11:48;16.10;54.80
76263;DHT22;65080;50.908;6.916;2022-11-15T13:14:47;16.10;54.60
76263;DHT22;65080;50.908;6.916;2022-11-15T13:17:33;16.10;54.60
76263;DHT22;65080;50.908;6.916;2022-11-15T13:20:22;16.10;54.60
76263;DHT22;65080;50.908;6.916;2022-11-15T13:22:53;16.10;54.50
76263;DHT22;65080;50.908;6.916;2022-11-15T13:28:32;16.10;54.70
76263;DHT22;65080;50.908;6.916;2022-11-15T13:31:13;16.10;54.90
76263;DHT22;65080;50.908;6.916;2022-11-15T13:33:44;16.10;55.00
76263;DHT22;65080;50.908;6.916;2022-11-15T13:36:15;16.10;55.20
76263;DHT22;65080;50.908;6.916;2022-11-15T13:38:44;16.20;55.50
76263;DHT22;65080;50.908;6.916;2022-11-15T13:41:18;16.10;55.70
76263;DHT22;65080;50.908;6.916;2022-11-15T13:43:49;16.10;55.90
76263;DHT22;65080;50.908;6.916;2022-11-15T13:46:19;16.10;56.10
76263;DHT22;65080;50.908;6.916;2022-11-15T13:48:52;16.10;56.30
76263;DHT22;65080;50.908;6.916;2022-11-15T13:51:29;16.00;56.60
76263;DHT22;65080;50.908;6.916;2022-11-15T13:54:01;16.00;56.80
76263;DHT22;65080;50.908;6.916;2022-11-15T13:56:31;15.90;56.90
76263;DHT22;65080;50.908;6.916;2022-11-15T13:59:08;15.90;57.00
76263;DHT22;65080;50.908;6.916;2022-11-15T14:01:37;15.90;57.20
76263;DHT22;65080;50.908;6.916;2022-11-15T14:04:12;15.80;57.40
76263;DHT22;65080;50.908;6.916;2022-11-15T14:06:46;15.80;57.40
76263;DHT22;65080;50.908;6.916;2022-11-15T14:09:39;15.70;57.50
76263;DHT22;65080;50.908;6.916;2022-11-15T14:12:29;15.70;57.70
76263;DHT22;65080;50.908;6.916;2022-11-15T14:15:02;15.70;57.70
76263;DHT22;65080;50.908;6.916;2022-11-15T14:17:36;15.70;57.80
76263;DHT22;65080;50.908;6.916;2022-11-15T14:20:27;15.70;57.90
76263;DHT22;65080;50.908;6.916;2022-11-15T14:22:58;15.70;58.00
76263;DHT22;65080;50.908;6.916;2022-11-15T14:25:28;15.70;58.10
76263;DHT22;65080;50.908;6.916;2022-11-15T14:28:15;15.70;58.20
76263;DHT22;65080;50.908;6.916;2022-11-15T14:30:45;15.70;58.30
76263;DHT22;65080;50.908;6.916;2022-11-15T14:33:22;15.70;58.40
76263;DHT22;65080;50.908;6.916;2022-11-15T14:35:51;15.70;58.40
76263;DHT22;65080;50.908;6.916;2022-11-15T14:38:19;15.70;58.40
76263;DHT22;65080;50.908;6.916;2022-11-15T14:40:47;15.70;58.50
76263;DHT22;65080;50.908;6.916;2022-11-15T14:43:15;15.70;58.60
76263;DHT22;65080;50.908;6.916;2022-11-15T14:45:45;15.70;58.60
76263;DHT22;65080;50.908;6.916;2022-11-15T14:48:13;15.70;58.60
76263;DHT22;65080;50.908;6.916;2022-11-15T14:50:41;15.70;58.60
76263;DHT22;65080;50.908;6.916;2022-11-15T14:53:12;15.70;58.60
76263;DHT22;65080;50.908;6.916;2022-11-15T14:55:41;15.70;58.70
76263;DHT22;65080;50.908;6.916;2022-11-15T14:58:09;15.80;58.80
76263;DHT22;65080;50.908;6.916;2022-11-15T15:00:39;15.80;58.80
76263;DHT22;65080;50.908;6.916;2022-11-15T15:03:09;15.80;58.80
76263;DHT22;65080;50.908;6.916;2022-11-15T15:05:39;15.70;58.70
76263;DHT22;65080;50.908;6.916;2022-11-15T15:08:08;15.80;58.80
76263;DHT22;65080;50.908;6.916;2022-11-15T15:10:39;15.80;58.90
76263;DHT22;65080;50.908;6.916;2022-11-15T15:13:16;15.80;58.90
76263;DHT22;65080;50.908;6.916;2022-11-15T15:15:44;15.70;58.80
76263;DHT22;65080;50.908;6.916;2022-11-15T15:18:14;15.70;58.90
76263;DHT22;65080;50.908;6.916;2022-11-15T15:20:44;15.70;58.80
76263;DHT22;65080;50.908;6.916;2022-11-15T15:23:17;15.70;58.90
76263;DHT22;65080;50.908;6.916;2022-11-15T15:25:46;15.70;58.90
76263;DHT22;65080;50.908;6.916;2022-11-15T15:28:15;15.70;59.00
76263;DHT22;65080;50.908;6.916;2022-11-15T15:30:43;15.60;58.90
76263;DHT22;65080;50.908;6.916;2022-11-15T15:33:11;15.70;59.10
76263;DHT22;65080;50.908;6.916;2022-11-15T15:35:41;15.60;59.00
76263;DHT22;65080;50.908;6.916;2022-11-15T15:38:11;15.60;59.00
76263;DHT22;65080;50.908;6.916;2022-11-15T15:40:39;15.60;59.10
76263;DHT22;65080;50.908;6.916;2022-11-15T15:43:08;15.60;59.10
76263;DHT22;65080;50.908;6.916;2022-11-15T15:45:37;15.60;59.10
76263;DHT22;65080;50.908;6.916;2022-11-15T15:48:07;15.60;59.20
76263;DHT22;65080;50.908;6.916;2022-11-15T15:50:36;15.60;59.10
76263;DHT22;65080;50.908;6.916;2022-11-15T15:53:06;15.60;59.10
76263;DHT22;65080;50.908;6.916;2022-11-15T15:55:34;15.60;59.20
76263;DHT22;65080;50.908;6.916;2022-11-15T15:58:03;15.50;59.20
76263;DHT22;65080;50.908;6.916;2022-11-15T16:00:31;15.50;59.20
76263;DHT22;65080;50.908;6.916;2022-11-15T16:03:00;15.40;59.30
76263;DHT22;65080;50.908;6.916;2022-11-15T16:05:28;15.50;59.50
76263;DHT22;65080;50.908;6.916;2022-11-15T16:07:56;15.50;59.60
76263;DHT22;65080;50.908;6.916;2022-11-15T16:10:28;15.50;59.70
76263;DHT22;65080;50.908;6.916;2022-11-15T16:12:57;15.50;59.70
76263;DHT22;65080;50.908;6.916;2022-11-15T16:15:27;15.40;59.70
76263;DHT22;65080;50.908;6.916;2022-11-15T16:17:57;15.50;59.80
76263;DHT22;65080;50.908;6.916;2022-11-15T16:20:35;15.40;59.80
76263;DHT22;65080;50.908;6.916;2022-11-15T16:23:05;15.40;59.90